• Join FlightAware (Why Join?)
  • Login
  • US Flag 
01:34PM EDT


 

Airport Tracker/Info


-or-


 

Live Flight TrackerFlight Track Log ✈ UAL5829 ✈ 18-Apr-2013 ✈ KIAD - KORF

Flight Track Log - Related Links

Times and Time Zones

All times are in EDT time to prevent confusion due to time zone crossing. See the UAL5829 flight status page for this flight to view local times or setup timezone preferences in your user account.

Time Position Orientation Groundspeed Altitude Reporting Facility
EDT Latitude Longitude Course Direction KTS MPH feet Rate Location/Type
12:40PM 38.9833 -77.5500 125° Southeast 217 250 3,200  Level Potomac TRACON
12:42PM 39.1167 -77.5333 North 287 330 8,100 2,160 Climbing Potomac TRACON
12:43PM 38.7612 -77.1056 123° Southeast  Level FlightAware Approximate
12:43PM 39.1500 -77.4500 63° Northeast 302 348 9,800  Level Potomac TRACON
12:44PM 38.7161 -77.0157 125° Southeast  Level FlightAware Approximate
12:45PM 38.6684 -76.9281 125° Southeast  Level FlightAware Approximate
12:45PM 39.1167 -77.2000 100° East 358 412 12,100  Level Potomac TRACON
12:46PM 38.6207 -76.8406 125° Southeast  Level FlightAware Approximate
12:47PM 39.0500 -76.9667 110° East 396 456 14,000  Level Potomac TRACON
12:49PM 38.9169 -76.8694 150° Southeast 396 456 14,000  Level Washington Center
12:50PM 38.8153 -76.8411 168° South 396 456 14,000 -60 Level Washington Center
12:51PM 38.7175 -76.7997 162° South 379 436 13,900 -60 Descending Washington Center
12:52PM 38.6222 -76.7583 161° South 374 430 13,900  Level Washington Center
12:53PM 38.5347 -76.7250 163° South 368 423 14,000  Climbing Washington Center
12:54PM 38.4350 -76.7103 173° South 361 415 14,000  Level Washington Center
12:55PM 38.3328 -76.7008 176° South 366 421 14,000  Level Washington Center
12:56PM 38.2203 -76.6806 172° South 371 427 14,000  Level Washington Center
12:57PM 38.1206 -76.6661 173° South 371 427 14,000  Level Washington Center
12:58PM 38.0142 -76.6697 182° South 371 427 14,000  Level Washington Center
12:59PM 37.9117 -76.6761 183° South 371 427 14,000  Level Washington Center
01:00PM 37.8369 -76.6594 170° South 375 432 14,000  Level Washington Center
01:00PM 37.8161 -76.6381 141° Southeast 360 414 14,000 -600 Level Washington Center
01:00PM 37.7853 -76.5981 134° Southeast 388 447 13,600 -1,380 Descending Washington Center
01:01PM 37.7439 -76.5397 132° Southeast 351 404 12,700 -1,500 Descending Washington Center
01:01PM 37.7150 -76.5028 135° Southeast 377 434 12,100 -1,500 Descending Washington Center
01:02PM 37.6739 -76.4419 130° Southeast 356 410 11,200 -1,500 Descending Washington Center
01:02PM 37.6408 -76.3994 134° Southeast 369 425 10,600 -1,200 Descending Washington Center
01:03PM 37.6078 -76.3519 131° Southeast 361 415 10,000 -600 Descending Washington Center
01:03PM 37.5725 -76.3281 152° Southeast 309 356 10,000 -420 Level Washington Center
01:04PM 37.5369 -76.3119 160° South 313 360 9,600 -1,020 Descending Washington Center
01:04PM 37.5036 -76.3117 180° South 217 250 9,000 -1,500 Descending Washington Center
01:05PM 37.4744 -76.3011 164° South 259 298 8,100 -1,500 Descending Washington Center
01:05PM 37.4558 -76.2772 134° Southeast 233 268 7,500 -1,020 Descending Washington Center
01:06PM 37.4478 -76.2328 103° East 202 232 7,100 -540 Descending Washington Center
01:06PM 37.4250 -76.2142 147° Southeast 199 229 7,000 -180 Descending Washington Center
01:07PM 37.3769 -76.1903 158° South 190 219 6,900 -540 Descending Washington Center
01:08PM 37.3481 -76.1744 156° South 197 227 6,200 -1,440 Descending Washington Center
01:08PM 37.3147 -76.1636 166° South 250 288 5,500 -1,440 Descending Washington Center
01:09PM 37.2856 -76.1506 160° South 220 253 4,800 -1,380 Descending Washington Center
01:09PM 37.2481 -76.1372 164° South 228 262 4,100 -540 Descending Washington Center
01:10PM 37.1875 -76.1133 163° South 228 262 4,000 -900 Descending Washington Center
01:11PM 37.1292 -76.0869 160° South 232 267 2,400 -960 Descending Washington Center
01:12PM 37.0647 -76.0683 167° South 218 251 2,100 -300 Descending Washington Center